createdAt,value
2018-12-05T00:01:06.063Z,12.30
2018-12-05T00:03:34.719Z,11.87
2018-12-05T00:06:03.485Z,11.60
2018-12-05T00:08:32.175Z,11.97
2018-12-05T00:11:02.194Z,12.27
2018-12-05T00:13:30.764Z,12.40
2018-12-05T00:15:59.297Z,12.70
2018-12-05T00:18:28.216Z,13.03
2018-12-05T00:20:56.707Z,12.33
2018-12-05T00:23:25.286Z,11.57
2018-12-05T00:25:54.134Z,10.87
2018-12-05T00:28:22.961Z,12.03
2018-12-05T00:30:51.571Z,12.33
2018-12-05T00:33:20.246Z,12.33
2018-12-05T00:35:48.863Z,12.23
2018-12-05T00:38:17.507Z,13.57
2018-12-05T00:40:46.178Z,13.43
2018-12-05T00:43:14.721Z,13.97
2018-12-05T00:45:43.622Z,13.87
2018-12-05T00:48:13.091Z,13.43
2018-12-05T00:50:41.649Z,14.47
2018-12-05T00:53:10.691Z,14.97
2018-12-05T00:55:39.221Z,14.43
2018-12-05T00:58:07.812Z,15.73
2018-12-05T01:00:36.599Z,15.00
2018-12-05T01:03:05.280Z,17.40
2018-12-05T01:05:33.886Z,17.53
2018-12-05T01:08:02.400Z,17.30
2018-12-05T01:10:30.929Z,19.10
2018-12-05T01:12:59.429Z,18.57
2018-12-05T01:15:28.104Z,17.00
2018-12-05T01:17:56.719Z,18.53
2018-12-05T01:20:25.968Z,18.73
2018-12-05T01:22:54.531Z,20.53
2018-12-05T01:25:23.422Z,19.10
2018-12-05T01:27:51.943Z,20.17
2018-12-05T01:30:20.831Z,19.87
2018-12-05T01:32:49.403Z,19.13
2018-12-05T01:35:18.079Z,20.20
2018-12-05T01:37:46.805Z,18.23
2018-12-05T01:40:15.420Z,17.60
2018-12-05T01:42:44.366Z,18.07
2018-12-05T01:45:13.030Z,18.10
2018-12-05T01:47:41.622Z,15.77
2018-12-05T01:50:11.048Z,16.80
2018-12-05T01:52:39.546Z,16.40
2018-12-05T01:55:08.171Z,16.17
2018-12-05T01:57:37.629Z,15.07
2018-12-05T02:00:06.782Z,15.60
2018-12-05T02:02:35.623Z,16.23
2018-12-05T02:05:04.270Z,15.70
2018-12-05T02:07:33.146Z,15.67
2018-12-05T02:10:01.787Z,14.60
2018-12-05T02:12:31.301Z,15.07
2018-12-05T02:14:59.870Z,14.50
2018-12-05T02:17:35.198Z,13.90
2018-12-05T02:20:04.231Z,13.97
2018-12-05T02:22:33.162Z,13.20
2018-12-05T02:25:01.810Z,14.10
2018-12-05T02:27:30.659Z,14.43
2018-12-05T02:29:59.166Z,14.07
2018-12-05T02:32:27.718Z,13.50
2018-12-05T02:34:56.350Z,14.50
2018-12-05T02:37:26.099Z,13.63
2018-12-05T02:39:54.684Z,12.77
2018-12-05T02:42:23.208Z,12.73
2018-12-05T02:44:51.830Z,11.90
2018-12-05T02:47:20.385Z,12.50
2018-12-05T02:49:49.324Z,12.83
2018-12-05T02:52:18.284Z,12.03
2018-12-05T02:54:46.950Z,12.67
2018-12-05T02:57:15.463Z,13.33
2018-12-05T02:59:43.991Z,13.20
2018-12-05T03:02:12.987Z,12.17
2018-12-05T03:04:42.497Z,12.37
2018-12-05T03:07:11.112Z,12.37
2018-12-05T03:09:40.021Z,12.33
2018-12-05T03:12:08.574Z,12.23
2018-12-05T03:14:37.171Z,11.97
2018-12-05T03:17:06.058Z,11.03
2018-12-05T03:19:34.585Z,11.67
2018-12-05T03:22:03.130Z,12.70
2018-12-05T03:24:31.674Z,12.17
2018-12-05T03:27:00.504Z,11.83
2018-12-05T03:29:29.036Z,11.37
2018-12-05T03:31:57.618Z,12.67
2018-12-05T03:34:26.146Z,11.90
2018-12-05T03:36:54.786Z,11.50
2018-12-05T03:39:23.295Z,11.33
2018-12-05T03:41:51.858Z,12.20
2018-12-05T03:44:21.306Z,11.60
2018-12-05T03:46:49.841Z,11.43
2018-12-05T03:49:18.987Z,12.20
2018-12-05T03:51:47.971Z,13.17
2018-12-05T03:54:17.579Z,11.50
2018-12-05T03:56:46.207Z,11.60
2018-12-05T03:59:14.697Z,13.17
2018-12-05T04:01:43.187Z,11.93
2018-12-05T04:04:12.242Z,11.47
2018-12-05T04:06:41.011Z,12.13
2018-12-05T04:09:10.114Z,12.60
2018-12-05T04:11:38.725Z,11.13
2018-12-05T04:14:07.355Z,12.90
2018-12-05T04:16:35.926Z,13.17
2018-12-05T04:19:05.433Z,13.40
2018-12-05T04:21:34.147Z,12.63
2018-12-05T04:24:04.661Z,13.40
2018-12-05T04:26:33.434Z,12.17
2018-12-05T04:29:02.037Z,13.10
2018-12-05T04:31:30.504Z,13.10
2018-12-05T04:33:59.046Z,13.27
2018-12-05T04:36:27.565Z,14.60
2018-12-05T04:38:56.140Z,13.87
2018-12-05T04:41:25.028Z,13.60
2018-12-05T04:43:53.579Z,14.03
2018-12-05T04:46:22.112Z,14.73
2018-12-05T04:48:51.020Z,13.60
2018-12-05T04:51:19.565Z,13.87
2018-12-05T04:53:48.210Z,13.57
2018-12-05T04:56:16.756Z,14.03
2018-12-05T04:58:45.360Z,14.17
2018-12-05T05:01:13.968Z,14.30
2018-12-05T05:03:42.528Z,13.97
2018-12-05T05:06:11.281Z,14.73
2018-12-05T05:08:39.924Z,15.07
2018-12-05T05:11:08.520Z,15.27
2018-12-05T05:13:37.050Z,15.53
2018-12-05T05:16:05.567Z,14.60
2018-12-05T05:18:34.150Z,14.03
2018-12-05T05:21:02.723Z,14.37
2018-12-05T05:23:31.666Z,15.90
2018-12-05T05:26:01.174Z,14.83
2018-12-05T05:28:30.060Z,15.97
2018-12-05T05:30:58.643Z,15.30
2018-12-05T05:33:27.686Z,16.47
2018-12-05T05:35:56.309Z,14.57
2018-12-05T05:38:26.161Z,16.47
2018-12-05T05:40:55.622Z,16.70
2018-12-05T05:43:24.267Z,16.77
2018-12-05T05:45:52.851Z,16.97
2018-12-05T05:48:21.435Z,15.50
2018-12-05T05:50:50.439Z,15.67
2018-12-05T05:53:19.148Z,17.00
2018-12-05T05:55:47.625Z,16.63
2018-12-05T05:58:16.393Z,15.93
2018-12-05T06:00:45.010Z,16.20
2018-12-05T06:03:14.331Z,17.80
2018-12-05T06:05:43.450Z,17.20
2018-12-05T06:08:12.002Z,17.70
2018-12-05T06:10:41.640Z,17.77
2018-12-05T06:13:10.788Z,18.57
2018-12-05T06:15:39.504Z,18.23
2018-12-05T06:18:08.195Z,17.67
2018-12-05T06:20:37.045Z,17.10
2018-12-05T06:23:06.268Z,17.17
2018-12-05T06:25:34.977Z,17.97
2018-12-05T06:28:04.004Z,17.77
2018-12-05T06:30:32.620Z,25.63
2018-12-05T06:33:01.590Z,22.77
2018-12-05T06:35:30.187Z,19.93
2018-12-05T06:37:58.813Z,19.93
2018-12-05T06:40:27.941Z,18.30
2018-12-05T06:42:57.977Z,18.93
2018-12-05T06:45:27.370Z,17.27
2018-12-05T06:47:56.014Z,16.23
2018-12-05T06:50:24.778Z,16.90
2018-12-05T06:52:54.474Z,17.30
2018-12-05T06:55:25.028Z,17.53
2018-12-05T06:57:53.611Z,17.07
2018-12-05T07:00:22.512Z,17.20
2018-12-05T07:02:51.166Z,17.10
2018-12-05T07:05:19.954Z,17.87
2018-12-05T07:07:48.625Z,16.63
2018-12-05T07:10:20.188Z,17.07
2018-12-05T07:12:49.603Z,16.00
2018-12-05T07:15:18.381Z,16.67
2018-12-05T07:17:47.813Z,16.67
2018-12-05T07:20:16.503Z,15.53
2018-12-05T07:22:46.260Z,15.77
2018-12-05T07:25:14.882Z,16.53
2018-12-05T07:27:43.974Z,19.97
2018-12-05T07:30:12.941Z,15.00
2018-12-05T07:32:41.568Z,16.23
2018-12-05T07:35:10.246Z,16.33
2018-12-05T07:37:38.929Z,16.20
2018-12-05T07:40:09.432Z,16.20
2018-12-05T07:42:38.849Z,16.90
2018-12-05T07:45:08.062Z,15.60
2018-12-05T07:47:37.098Z,16.40
2018-12-05T07:50:07.079Z,16.40
2018-12-05T07:52:36.285Z,16.83
2018-12-05T07:55:05.137Z,16.37
2018-12-05T07:57:34.001Z,16.00
2018-12-05T08:00:03.813Z,16.70
2018-12-05T08:02:32.549Z,16.77
2018-12-05T08:05:01.666Z,16.67
2018-12-05T08:07:31.179Z,16.17
2018-12-05T08:10:00.325Z,17.93
2018-12-05T08:12:29.869Z,17.20
2018-12-05T08:14:58.496Z,16.73
2018-12-05T08:17:27.180Z,17.03
2018-12-05T08:19:56.234Z,18.37
2018-12-05T08:22:25.045Z,17.37
2018-12-05T08:24:53.639Z,18.03
2018-12-05T08:27:22.253Z,17.83
2018-12-05T08:29:50.857Z,18.17
2018-12-05T08:32:20.567Z,16.93
2018-12-05T08:34:50.331Z,18.00
2018-12-05T08:37:18.943Z,17.43
2018-12-05T08:39:47.700Z,19.40
2018-12-05T08:42:16.422Z,20.40
2018-12-05T08:44:45.840Z,17.63
2018-12-05T08:47:14.522Z,17.17
2018-12-05T08:49:43.287Z,18.03
2018-12-05T08:52:12.604Z,17.33
2018-12-05T08:54:41.106Z,16.87
2018-12-05T08:57:09.596Z,18.43
2018-12-05T08:59:38.150Z,20.13
2018-12-05T09:02:06.733Z,17.77
2018-12-05T09:04:35.286Z,17.03
2018-12-05T09:07:04.560Z,16.17
2018-12-05T09:09:33.305Z,15.23
2018-12-05T09:12:02.481Z,17.07
2018-12-05T09:14:31.633Z,16.00
2018-12-05T09:17:00.222Z,14.93
2018-12-05T09:19:28.858Z,17.37
2018-12-05T09:21:57.521Z,16.73
2018-12-05T09:24:26.063Z,16.77
2018-12-05T09:26:54.669Z,16.97
2018-12-05T09:29:23.150Z,17.50
2018-12-05T09:31:52.050Z,16.47
2018-12-05T09:34:20.622Z,15.67
2018-12-05T09:36:49.065Z,15.97
2018-12-05T09:39:17.609Z,15.87
2018-12-05T09:41:46.456Z,15.17
2018-12-05T09:44:15.093Z,16.90
2018-12-05T09:46:43.592Z,15.70
2018-12-05T09:49:12.119Z,15.57
2018-12-05T09:51:40.664Z,16.00
2018-12-05T09:54:09.190Z,15.67
2018-12-05T09:56:37.950Z,15.77
2018-12-05T09:59:07.170Z,18.47
2018-12-05T10:01:36.035Z,24.10
2018-12-05T10:04:04.900Z,17.27
2018-12-05T10:06:34.157Z,15.27
2018-12-05T10:09:04.239Z,16.40
2018-12-05T10:11:32.757Z,16.10
2018-12-05T10:14:01.256Z,15.07
2018-12-05T10:16:29.915Z,17.53
2018-12-05T10:18:59.220Z,16.70
2018-12-05T10:21:27.809Z,17.07
2018-12-05T10:23:56.960Z,16.30
2018-12-05T10:26:26.282Z,15.70
2018-12-05T10:28:55.084Z,14.67
2018-12-05T10:31:23.682Z,15.53
2018-12-05T10:33:52.390Z,17.07
2018-12-05T10:36:21.387Z,16.40
2018-12-05T10:38:49.948Z,16.47
2018-12-05T10:41:19.286Z,16.43
2018-12-05T10:43:51.054Z,17.97
2018-12-05T10:46:21.345Z,17.30
2018-12-05T10:48:50.113Z,16.53
2018-12-05T10:51:19.098Z,16.83
2018-12-05T10:53:48.433Z,17.07
2018-12-05T10:56:19.089Z,16.37
2018-12-05T10:58:48.424Z,17.33
2018-12-05T11:01:23.445Z,18.13
2018-12-05T11:03:52.901Z,17.20
2018-12-05T11:06:26.894Z,42.73
2018-12-05T11:11:05.160Z,17.83
2018-12-05T11:13:39.495Z,17.67
2018-12-05T11:16:13.473Z,18.53
2018-12-05T11:18:48.013Z,58.97
2018-12-05T11:21:22.759Z,20.53
2018-12-05T11:23:57.562Z,17.33
2018-12-05T11:26:29.575Z,18.20
2018-12-05T11:28:58.281Z,16.27
2018-12-05T11:31:27.215Z,16.73
2018-12-05T11:33:56.400Z,17.47
2018-12-05T11:36:25.045Z,16.50
2018-12-05T11:38:54.905Z,18.60
2018-12-05T11:41:23.544Z,19.77
2018-12-05T11:43:53.301Z,16.97
2018-12-05T11:46:22.086Z,14.27
2018-12-05T11:48:50.753Z,14.53
2018-12-05T11:51:19.748Z,15.27
2018-12-05T11:53:48.456Z,13.87
2018-12-05T11:56:17.300Z,14.73
2018-12-05T11:58:46.027Z,15.20
2018-12-05T12:01:15.049Z,14.13
2018-12-05T12:03:44.322Z,13.73
2018-12-05T12:06:13.300Z,13.37
2018-12-05T12:08:42.050Z,14.10
2018-12-05T12:11:10.984Z,13.37
2018-12-05T12:13:39.767Z,13.50
2018-12-05T12:16:09.571Z,13.10
2018-12-05T12:18:38.734Z,13.10
2018-12-05T12:21:07.561Z,13.37
2018-12-05T12:23:36.184Z,13.63
2018-12-05T12:26:05.015Z,13.23
2018-12-05T12:28:34.301Z,13.67
2018-12-05T12:31:04.088Z,12.90
2018-12-05T12:33:33.172Z,13.33
2018-12-05T12:36:02.034Z,13.23
2018-12-05T12:38:33.713Z,15.17
2018-12-05T12:41:02.890Z,14.93
2018-12-05T12:43:31.479Z,16.20
2018-12-05T12:46:02.280Z,14.00
2018-12-05T12:48:31.869Z,13.10
2018-12-05T12:51:00.592Z,13.40
2018-12-05T12:53:29.143Z,12.67
2018-12-05T12:55:57.849Z,12.20
2018-12-05T12:58:27.162Z,14.10
2018-12-05T13:00:56.072Z,11.17
2018-12-05T13:03:24.687Z,12.43
2018-12-05T13:05:53.453Z,14.97
2018-12-05T13:08:22.037Z,12.50
2018-12-05T13:10:51.061Z,11.83
2018-12-05T13:13:19.603Z,11.00
2018-12-05T13:15:48.502Z,11.80
2018-12-05T13:18:17.404Z,13.73
2018-12-05T13:20:46.113Z,16.20
2018-12-05T13:23:14.809Z,14.50
2018-12-05T13:25:43.538Z,14.10
2018-12-05T13:28:12.287Z,12.70
2018-12-05T13:30:41.028Z,12.97
2018-12-05T13:33:09.653Z,11.73
2018-12-05T13:35:38.717Z,11.67
2018-12-05T13:38:07.354Z,15.70
2018-12-05T13:40:35.970Z,11.70
2018-12-05T13:43:04.850Z,12.07
2018-12-05T13:45:33.579Z,13.00
2018-12-05T13:48:02.666Z,12.93
2018-12-05T13:50:32.067Z,12.50
2018-12-05T13:53:01.426Z,11.30
2018-12-05T13:55:30.188Z,11.70
2018-12-05T13:57:58.796Z,10.57
2018-12-05T14:00:28.137Z,12.50
2018-12-05T14:02:56.752Z,10.07
2018-12-05T14:05:25.393Z,12.73
2018-12-05T14:07:54.123Z,10.93
2018-12-05T14:10:23.284Z,10.83
2018-12-05T14:12:52.303Z,11.63
2018-12-05T14:15:20.908Z,11.50
2018-12-05T14:17:50.768Z,12.00
2018-12-05T14:20:19.450Z,11.83
2018-12-05T14:22:48.119Z,10.90
2018-12-05T14:25:16.935Z,10.67
2018-12-05T14:27:46.229Z,12.43
2018-12-05T14:30:15.434Z,13.23
2018-12-05T14:32:44.046Z,12.13
2018-12-05T14:35:12.705Z,13.50
2018-12-05T14:37:42.406Z,13.77
2018-12-05T14:40:11.220Z,11.90
2018-12-05T14:42:41.719Z,12.30
2018-12-05T14:45:11.079Z,13.10
2018-12-05T14:47:39.694Z,12.93
2018-12-05T14:50:08.687Z,12.03
2018-12-05T14:52:37.341Z,12.80
2018-12-05T14:55:07.509Z,13.17
2018-12-05T14:57:36.187Z,11.63
2018-12-05T15:00:05.433Z,12.03
2018-12-05T15:02:34.150Z,13.93
2018-12-05T15:05:03.721Z,12.70
2018-12-05T15:07:32.741Z,11.23
2018-12-05T15:10:01.327Z,13.17
2018-12-05T15:12:30.017Z,13.07
2018-12-05T15:15:00.195Z,12.30
2018-12-05T15:17:28.793Z,11.37
2018-12-05T15:19:58.366Z,10.90
2018-12-05T15:22:27.062Z,11.63
2018-12-05T15:24:55.883Z,13.17
2018-12-05T15:27:24.917Z,12.33
2018-12-05T15:29:54.588Z,13.87
2018-12-05T15:32:23.206Z,14.17
2018-12-05T15:34:52.251Z,11.03
2018-12-05T15:37:22.568Z,10.63
2018-12-05T15:39:51.991Z,10.00
2018-12-05T15:42:20.951Z,11.43
2018-12-05T15:44:49.587Z,10.33
2018-12-05T15:47:18.161Z,13.10
2018-12-05T15:49:46.871Z,10.80
2018-12-05T15:52:16.148Z,12.03
2018-12-05T15:54:45.325Z,10.27
2018-12-05T15:57:14.118Z,10.83
2018-12-05T15:59:44.286Z,10.43
2018-12-05T16:02:13.066Z,12.20
2018-12-05T16:04:42.597Z,10.27
2018-12-05T16:07:11.880Z,10.67
2018-12-05T16:09:40.398Z,10.80
2018-12-05T16:12:09.693Z,14.03
2018-12-05T16:14:38.889Z,11.80
2018-12-05T16:17:07.445Z,16.67
2018-12-05T16:19:36.025Z,15.67
2018-12-05T16:22:04.898Z,23.17
2018-12-05T16:24:34.436Z,10.63
2018-12-05T16:27:03.501Z,10.73
2018-12-05T16:29:32.146Z,13.37
2018-12-05T16:32:00.710Z,11.10
2018-12-05T16:34:29.255Z,11.43
2018-12-05T16:36:58.081Z,11.47
2018-12-05T16:39:27.494Z,12.37
2018-12-05T16:41:59.319Z,10.23
2018-12-05T16:44:30.239Z,13.77
2018-12-05T16:46:59.961Z,13.47
2018-12-05T16:49:28.680Z,11.90
2018-12-05T16:51:57.445Z,12.17
2018-12-05T16:54:27.732Z,11.63
2018-12-05T16:56:56.718Z,11.63
2018-12-05T16:59:25.644Z,12.20
2018-12-05T17:01:54.293Z,12.10
2018-12-05T17:04:22.862Z,11.53
2018-12-05T17:06:51.957Z,15.73
2018-12-05T17:09:26.044Z,12.47
2018-12-05T17:11:52.153Z,12.83
2018-12-05T17:14:20.816Z,12.43
2018-12-05T17:16:49.438Z,13.60
2018-12-05T17:19:18.181Z,15.60
2018-12-05T17:21:46.890Z,13.17
2018-12-05T17:24:15.477Z,15.00
2018-12-05T17:26:44.392Z,12.87
2018-12-05T17:29:13.123Z,13.20
2018-12-05T17:31:42.027Z,12.07
2018-12-05T17:34:10.716Z,12.43
2018-12-05T17:36:40.791Z,12.87
2018-12-05T17:39:09.810Z,12.60
2018-12-05T17:41:38.551Z,15.10
2018-12-05T17:44:09.407Z,18.37
2018-12-05T17:46:43.079Z,12.20
2018-12-05T17:49:11.677Z,12.87
2018-12-05T17:51:41.206Z,12.00
2018-12-05T17:54:14.735Z,12.17
2018-12-05T17:56:42.098Z,11.57
2018-12-05T17:59:10.689Z,11.40
2018-12-05T18:01:39.565Z,11.57
2018-12-05T18:04:08.401Z,11.20
2018-12-05T18:06:36.975Z,11.13
2018-12-05T18:09:08.170Z,11.97
2018-12-05T18:11:36.842Z,12.63
2018-12-05T18:14:05.567Z,12.33
2018-12-05T18:16:34.306Z,13.80
2018-12-05T18:19:03.978Z,11.50
2018-12-05T18:21:32.661Z,11.17
2018-12-05T18:24:01.748Z,10.83
2018-12-05T18:26:30.457Z,12.23
2018-12-05T18:28:59.851Z,12.60
2018-12-05T18:31:28.918Z,12.10
2018-12-05T18:33:59.092Z,10.20
2018-12-05T18:36:28.913Z,10.60
2018-12-05T18:38:57.999Z,12.33
2018-12-05T18:41:26.775Z,12.10
2018-12-05T18:43:55.505Z,13.40
2018-12-05T18:46:26.033Z,14.93
2018-12-05T18:48:56.623Z,12.47
2018-12-05T18:51:26.605Z,11.03
2018-12-05T18:53:56.826Z,10.37
2018-12-05T18:56:26.106Z,9.10
2018-12-05T18:58:57.199Z,11.13
2018-12-05T19:01:26.983Z,10.53
2018-12-05T19:03:57.094Z,11.73
2018-12-05T19:06:26.549Z,9.60
2018-12-05T19:08:55.865Z,10.27
2018-12-05T19:11:27.560Z,9.77
2018-12-05T19:14:01.567Z,10.17
2018-12-05T19:16:30.884Z,8.87
2018-12-05T19:19:00.333Z,9.73
2018-12-05T19:21:29.467Z,10.97
2018-12-05T19:23:58.691Z,10.60
2018-12-05T19:26:27.415Z,9.47
2018-12-05T19:28:56.203Z,9.73
2018-12-05T19:31:25.079Z,10.40
2018-12-05T19:33:53.967Z,9.80
2018-12-05T19:36:23.034Z,9.60
2018-12-05T19:38:51.789Z,9.83
2018-12-05T19:41:20.490Z,10.10
2018-12-05T19:43:50.454Z,9.60
2018-12-05T19:46:19.460Z,11.00
2018-12-05T19:48:48.459Z,10.90
2018-12-05T19:51:17.502Z,10.90
2018-12-05T19:53:46.426Z,9.77
2018-12-05T19:56:16.366Z,10.73
2018-12-05T19:58:46.276Z,9.30
2018-12-05T20:01:17.579Z,9.37
2018-12-05T20:03:47.356Z,9.10
2018-12-05T20:06:16.246Z,9.87
2018-12-05T20:08:46.419Z,11.10
2018-12-05T20:11:16.638Z,10.10
2018-12-05T20:13:46.231Z,10.23
2018-12-05T20:16:15.245Z,10.87
2018-12-05T20:18:44.056Z,11.40
2018-12-05T20:21:12.846Z,9.93
2018-12-05T20:23:41.578Z,11.27
2018-12-05T20:26:10.864Z,9.93
2018-12-05T20:28:39.752Z,10.33
2018-12-05T20:31:08.388Z,10.00
2018-12-05T20:33:37.435Z,10.40
2018-12-05T20:36:06.441Z,11.63
2018-12-05T20:38:35.232Z,11.23
2018-12-05T20:41:04.120Z,10.43
2018-12-05T20:43:32.937Z,10.90
2018-12-05T20:46:01.705Z,11.50
2018-12-05T20:48:30.438Z,10.63
2018-12-05T20:50:59.477Z,10.97
2018-12-05T20:53:28.292Z,10.43
2018-12-05T20:55:56.902Z,10.33
2018-12-05T20:58:25.696Z,9.50
2018-12-05T21:00:54.336Z,10.20
2018-12-05T21:03:23.017Z,10.00
2018-12-05T21:05:51.743Z,10.33
2018-12-05T21:08:20.325Z,11.60
2018-12-05T21:10:48.990Z,9.87
2018-12-05T21:13:17.696Z,11.20
2018-12-05T21:15:47.172Z,11.27
2018-12-05T21:18:15.797Z,10.97
2018-12-05T21:20:45.069Z,11.90
2018-12-05T21:23:13.749Z,10.83
2018-12-05T21:25:42.369Z,12.07
2018-12-05T21:28:10.939Z,11.90
2018-12-05T21:30:39.737Z,12.27
2018-12-05T21:33:08.358Z,12.00
2018-12-05T21:35:36.934Z,11.67
2018-12-05T21:38:06.071Z,12.87
2018-12-05T21:40:36.963Z,11.60
2018-12-05T21:43:06.094Z,12.57
2018-12-05T21:45:34.780Z,13.43
2018-12-05T21:48:03.531Z,14.87
2018-12-05T21:50:32.161Z,13.57
2018-12-05T21:53:01.029Z,13.83
2018-12-05T21:55:29.604Z,14.13
2018-12-05T21:57:58.180Z,13.30
2018-12-05T22:00:26.777Z,12.77
2018-12-05T22:02:55.540Z,13.63
2018-12-05T22:05:24.188Z,14.60
2018-12-05T22:07:53.344Z,14.00
2018-12-05T22:10:22.313Z,15.23
2018-12-05T22:12:51.384Z,14.57
2018-12-05T22:15:19.905Z,14.57
2018-12-05T22:17:48.650Z,13.93
2018-12-05T22:20:18.258Z,13.87
2018-12-05T22:22:46.792Z,14.97
2018-12-05T22:25:15.305Z,13.90
2018-12-05T22:27:44.070Z,12.40
2018-12-05T22:30:12.682Z,16.03
2018-12-05T22:32:41.292Z,16.77
2018-12-05T22:35:10.457Z,17.00
2018-12-05T22:37:39.079Z,17.00
2018-12-05T22:40:08.751Z,16.37
2018-12-05T22:42:37.307Z,17.87
2018-12-05T22:45:06.175Z,16.90
2018-12-05T22:47:34.708Z,17.60
2018-12-05T22:50:03.431Z,17.23
2018-12-05T22:52:31.948Z,19.03
2018-12-05T22:55:00.476Z,16.17
2018-12-05T22:57:30.093Z,16.93
2018-12-05T22:59:59.358Z,16.90
2018-12-05T23:02:27.895Z,17.00
2018-12-05T23:04:56.410Z,16.97
2018-12-05T23:07:24.897Z,18.13
2018-12-05T23:09:53.438Z,16.87
2018-12-05T23:12:22.723Z,18.00
2018-12-05T23:14:51.269Z,17.63
2018-12-05T23:17:20.389Z,17.93
2018-12-05T23:19:48.926Z,19.10
2018-12-05T23:22:17.430Z,15.93
2018-12-05T23:24:45.917Z,16.00
2018-12-05T23:27:15.445Z,18.40
2018-12-05T23:29:44.063Z,17.80
2018-12-05T23:32:12.572Z,17.97
2018-12-05T23:34:41.091Z,17.13
2018-12-05T23:37:09.606Z,18.30
2018-12-05T23:39:38.876Z,17.83
2018-12-05T23:42:07.468Z,16.67
2018-12-05T23:44:36.059Z,18.90
2018-12-05T23:47:05.251Z,18.60
2018-12-05T23:49:34.364Z,18.63
2018-12-05T23:52:46.564Z,19.17
2018-12-05T23:55:15.037Z,18.43
2018-12-05T23:57:43.533Z,18.00
